Time;durP1;ratioP1;P1;durP2;ratioP2;P2;SDS_P1;SDS_P2;PMS_P1;PMS_P2;Temp;Humidity;BMP_temperature;BMP_pressure;BME280_temperature;BME280_humidity;BME280_pressure;Samples;Min_cycle;Max_cycle;Signal;HPM_P1;HPM_P2
2023/10/22 00:00:10;;;;;;;4.28;1.87;;;;;;;18.48;82.55;98483.41;4478500;32;34881;-76
2023/10/22 00:02:39;;;;;;;4.82;2.05;;;;;;;18.64;80.65;98480.62;4478819;32;32814;-76
2023/10/22 00:05:11;;;;;;;4.43;1.85;;;;;;;18.50;81.75;98468.41;4474708;32;33407;-76
2023/10/22 00:07:40;;;;;;;3.17;1.60;;;;;;;18.59;80.79;98454.66;4471791;32;34287;-75
2023/10/22 00:10:12;;;;;;;4.87;1.80;;;;;;;18.30;82.25;98449.53;4473040;32;34505;-75
2023/10/22 00:12:40;;;;;;;3.55;1.87;;;;;;;18.19;83.21;98433.63;4476645;32;33013;-75
2023/10/22 00:15:14;;;;;;;4.82;2.17;;;;;;;18.25;82.57;98438.50;4470662;32;33893;-75
2023/10/22 00:17:43;;;;;;;9.95;2.33;;;;;;;18.32;81.88;98438.94;4469642;32;34346;-77
2023/10/22 00:20:17;;;;;;;4.47;2.00;;;;;;;18.34;81.57;98448.41;4472199;32;34482;-75
2023/10/22 00:22:46;;;;;;;11.00;2.40;;;;;;;18.36;81.67;98450.06;4469873;32;32664;-74
2023/10/22 00:25:17;;;;;;;4.68;1.83;;;;;;;18.38;81.15;98448.19;4473975;32;34308;-76
2023/10/22 00:27:46;;;;;;;10.93;2.43;;;;;;;18.36;81.27;98450.06;4472725;31;33603;-77
2023/10/22 00:30:18;;;;;;;4.18;1.85;;;;;;;18.42;80.83;98465.44;4477209;32;34397;-76
2023/10/22 00:32:47;;;;;;;2.65;1.42;;;;;;;18.31;81.45;98456.47;4476666;31;33790;-75
2023/10/22 00:35:19;;;;;;;5.28;2.25;;;;;;;18.27;81.33;98456.78;4477160;31;33396;-75
2023/10/22 00:37:48;;;;;;;4.60;1.80;;;;;;;18.41;81.35;98461.13;4468612;31;33054;-75
2023/10/22 00:40:20;;;;;;;4.12;1.85;;;;;;;18.30;81.19;98457.41;4473662;32;34283;-75
2023/10/22 00:42:49;;;;;;;3.47;1.90;;;;;;;18.40;80.70;98456.81;4470921;32;33469;-75
2023/10/22 00:45:24;;;;;;;4.55;1.75;;;;;;;18.40;80.71;98457.66;4467649;32;35781;-75
2023/10/22 00:47:53;;;;;;;2.62;1.50;;;;;;;18.28;81.21;98448.78;4477895;32;33809;-75
2023/10/22 00:50:25;;;;;;;3.20;1.55;;;;;;;18.45;80.84;98455.56;4470717;32;33370;-75
2023/10/22 00:52:54;;;;;;;2.85;1.15;;;;;;;18.36;81.29;98450.06;4469455;32;33940;-75
2023/10/22 00:55:25;;;;;;;3.92;1.70;;;;;;;18.46;81.08;98446.75;4471157;32;34470;-75
2023/10/22 00:57:54;;;;;;;4.37;1.60;;;;;;;18.49;80.35;98450.97;4471530;32;33916;-76
2023/10/22 01:00:27;;;;;;;4.00;2.40;;;;;;;18.39;81.11;98448.09;4467312;31;34674;-76
2023/10/22 01:02:55;;;;;;;3.35;1.70;;;;;;;18.62;80.14;98443.12;4461782;32;33416;-75
2023/10/22 01:05:32;;;;;;;5.60;1.45;;;;;;;18.52;80.91;98454.22;4470640;32;34198;-78
2023/10/22 01:08:01;;;;;;;2.85;0.90;;;;;;;18.49;81.20;98453.59;4473830;32;33814;-78
2023/10/22 01:10:36;;;;;;;2.92;1.87;;;;;;;18.43;81.28;98446.09;4477036;32;34746;-77
2023/10/22 01:13:06;;;;;;;1.90;1.02;;;;;;;18.38;81.75;98450.81;4474115;32;34413;-76
2023/10/22 01:15:38;;;;;;;2.87;1.40;;;;;;;18.50;80.84;98455.28;4468803;32;33060;-78
2023/10/22 01:18:15;;;;;;;3.22;1.17;;;;;;;18.44;81.49;98453.06;4473409;32;34095;-77
2023/10/22 01:20:50;;;;;;;3.75;1.50;;;;;;;18.47;81.25;98450.22;4475391;31;33580;-75
2023/10/22 01:23:21;;;;;;;1.62;1.00;;;;;;;18.40;81.82;98452.41;4474296;32;32902;-78
2023/10/22 01:25:51;;;;;;;2.75;1.30;;;;;;;18.55;80.97;98450.56;4475072;31;33454;-77
2023/10/22 01:28:21;;;;;;;4.87;1.52;;;;;;;18.55;80.85;98450.56;4470562;31;33369;-76
2023/10/22 01:30:52;;;;;;;1.10;1.00;;;;;;;18.46;81.53;98457.28;4472675;32;32902;-77
2023/10/22 01:33:24;;;;;;;4.72;2.05;;;;;;;18.40;81.82;98441.91;4468361;32;32409;-75
2023/10/22 01:35:54;;;;;;;2.78;1.35;;;;;;;18.44;81.58;98443.38;4480139;32;33529;-76
2023/10/22 01:38:28;;;;;;;3.70;1.90;;;;;;;18.60;80.63;98445.84;4467198;32;33501;-76
2023/10/22 01:41:05;;;;;;;3.53;1.35;;;;;;;18.45;81.63;98444.22;4461059;32;32962;-75
2023/10/22 01:43:34;;;;;;;3.42;2.05;;;;;;;18.37;81.68;98441.28;4461012;32;34539;-76
2023/10/22 01:46:13;;;;;;;3.05;1.12;;;;;;;18.58;80.83;98445.13;4477662;32;33632;-78
2023/10/22 01:48:44;;;;;;;3.25;1.50;;;;;;;18.45;81.56;98450.31;4481545;32;34288;-75
2023/10/22 01:51:13;;;;;;;3.53;2.22;;;;;;;18.67;80.71;98462.03;4476681;32;33472;-75
2023/10/22 01:53:46;;;;;;;2.87;1.30;;;;;;;18.52;81.25;98456.84;4471794;31;34135;-74
2023/10/22 01:56:15;;;;;;;3.75;2.10;;;;;;;18.57;81.55;98459.19;4468324;31;33736;-75
2023/10/22 01:58:48;;;;;;;4.32;1.73;;;;;;;18.69;80.24;98458.38;4475686;32;33598;-75
2023/10/22 02:01:17;;;;;;;4.07;2.05;;;;;;;18.52;81.41;98463.91;4479720;32;33586;-78
2023/10/22 02:03:49;;;;;;;2.72;1.30;;;;;;;18.55;80.84;98456.66;4476867;31;34040;-77
2023/10/22 02:06:18;;;;;;;2.97;1.80;;;;;;;18.51;81.32;98459.59;4472056;32;32188;-75
2023/10/22 02:08:51;;;;;;;2.90;1.40;;;;;;;18.55;81.41;98447.94;4479347;32;33900;-77
2023/10/22 02:11:25;;;;;;;6.82;1.35;;;;;;;18.52;81.20;98450.75;4483135;32;33975;-76
2023/10/22 02:14:01;;;;;;;3.92;1.27;;;;;;;18.57;80.84;98464.44;4466693;31;33080;-77
2023/10/22 02:16:33;;;;;;;3.60;2.12;;;;;;;18.57;80.84;98459.19;4470366;32;34694;-76
2023/10/22 02:19:02;;;;;;;3.08;1.52;;;;;;;18.51;80.80;98451.72;4471378;32;34684;-78
2023/10/22 02:21:35;;;;;;;3.80;1.67;;;;;;;18.54;81.08;98449.72;4477157;32;33571;-74
2023/10/22 02:24:06;;;;;;;3.25;1.70;;;;;;;18.50;81.31;98456.09;4476325;32;33817;-76
2023/10/22 02:26:36;;;;;;;;;;;;;;;18.50;81.27;98452.66;4470389;32;34389;-74
2023/10/22 02:29:04;;;;;;;2.97;1.55;;;;;;;18.58;80.53;98450.38;4473003;32;35083;-77
2023/10/22 02:31:38;;;;;;;4.78;2.00;;;;;;;18.60;80.55;98451.09;4467646;32;34322;-78
2023/10/22 02:34:09;;;;;;;4.32;2.00;;;;;;;18.58;80.51;98441.62;4471163;32;33170;-75
2023/10/22 02:36:37;;;;;;;5.03;2.05;;;;;;;18.61;80.57;98441.44;4475393;32;32919;-75
2023/10/22 02:39:09;;;;;;;4.15;2.25;;;;;;;18.46;81.53;98433.63;4464262;32;34431;-77
2023/10/22 02:41:40;;;;;;;4.10;2.22;;;;;;;18.64;80.04;98444.69;4474733;32;33097;-77
2023/10/22 02:44:09;;;;;;;6.20;1.92;;;;;;;18.48;81.06;98436.13;4472464;32;33104;-75
2023/10/22 02:46:38;;;;;;;3.85;2.25;;;;;;;18.59;80.33;98438.91;4477969;32;33461;-75
2023/10/22 02:49:10;;;;;;;3.62;1.73;;;;;;;18.43;81.19;98427.72;4472342;32;33368;-75
2023/10/22 02:51:42;;;;;;;8.35;2.62;;;;;;;18.52;80.60;98429.75;4476445;32;33697;-75
2023/10/22 02:54:12;;;;;;;3.65;2.05;;;;;;;18.71;79.60;98429.38;4473449;31;33964;-75
2023/10/22 02:56:44;;;;;;;6.32;2.00;;;;;;;18.47;80.87;98437.09;4479264;32;33452;-77
2023/10/22 02:59:13;;;;;;;4.50;2.55;;;;;;;18.78;78.69;98440.38;4477064;31;34519;-75
2023/10/22 03:01:48;;;;;;;8.00;1.85;;;;;;;18.43;80.53;98436.44;4475546;32;34154;-77
2023/10/22 03:04:17;;;;;;;5.35;2.25;;;;;;;18.43;80.79;98439.06;4477081;32;34134;-76
2023/10/22 03:06:49;;;;;;;5.55;2.40;;;;;;;18.41;81.22;98438.34;4472095;32;34333;-76
2023/10/22 03:09:22;;;;;;;4.80;2.22;;;;;;;18.42;81.08;98444.44;4473834;32;33600;-78
2023/10/22 03:11:53;;;;;;;4.03;1.67;;;;;;;18.31;81.46;98445.13;4469834;31;34169;-75
2023/10/22 03:14:22;;;;;;;2.92;1.83;;;;;;;18.33;81.85;98444.06;4476259;32;32985;-79
2023/10/22 03:16:59;;;;;;;4.15;2.15;;;;;;;18.41;81.45;98451.47;4475867;32;34277;-78
2023/10/22 03:19:33;;;;;;;3.53;1.75;;;;;;;18.34;81.22;98450.19;4476771;32;33648;-77
2023/10/22 03:22:04;;;;;;;5.45;2.20;;;;;;;18.41;80.95;98454.09;4477045;31;33455;-76
2023/10/22 03:24:34;;;;;;;5.75;2.17;;;;;;;18.38;81.11;98448.19;4472643;31;34085;-76
2023/10/22 03:27:04;;;;;;;6.65;2.25;;;;;;;18.34;81.85;98443.16;4476749;31;33653;-77
2023/10/22 03:29:35;;;;;;;7.57;3.28;;;;;;;18.37;81.94;98443.91;4471876;32;35354;-76
2023/10/22 03:32:05;;;;;;;10.18;3.30;;;;;;;18.31;82.38;98443.34;4473417;32;33411;-76
2023/10/22 03:34:37;;;;;;;5.43;2.55;;;;;;;18.25;82.42;98451.63;4466946;31;33141;-77
2023/10/22 03:37:08;;;;;;;7.75;3.58;;;;;;;18.38;82.53;98445.56;4473640;31;33540;-77
2023/10/22 03:39:41;;;;;;;;;;;;;;;18.22;83.52;98454.44;4478571;31;33914;-76
2023/10/22 03:42:09;;;;;;;8.50;2.55;;;;;;;18.58;81.17;98453.00;4474877;31;34117;-76
2023/10/22 03:44:39;;;;;;;6.62;3.20;;;;;;;18.44;81.57;98458.31;4481073;31;33607;-76
2023/10/22 03:47:08;;;;;;;6.78;3.30;;;;;;;18.46;82.03;98459.91;4475736;32;33813;-76
2023/10/22 03:49:41;;;;;;;8.52;2.90;;;;;;;18.44;82.07;98458.31;4478013;31;34784;-79
2023/10/22 03:52:10;;;;;;;6.37;2.85;;;;;;;18.37;82.38;98457.03;4472170;31;33691;-76
2023/10/22 03:54:43;;;;;;;6.75;3.40;;;;;;;18.49;81.53;98461.47;4476319;31;33222;-75
2023/10/22 03:57:12;;;;;;;6.07;3.55;;;;;;;18.45;82.15;98465.22;4472522;31;34208;-75
2023/10/22 03:59:44;;;;;;;5.97;2.85;;;;;;;18.46;81.64;98475.66;4474207;31;33983;-75
2023/10/22 04:02:13;;;;;;;6.55;2.87;;;;;;;18.41;82.71;98479.50;4469259;31;33849;-75
2023/10/22 04:04:46;;;;;;;5.78;2.70;;;;;;;18.46;82.13;98491.41;4468764;31;32890;-76
2023/10/22 04:07:14;;;;;;;9.00;2.72;;;;;;;18.43;82.01;98493.38;4481308;31;34415;-78
2023/10/22 04:09:47;;;;;;;4.55;2.08;;;;;;;17.96;84.56;98499.87;4476912;31;34478;-76
2023/10/22 04:12:16;;;;;;;5.05;2.53;;;;;;;18.08;84.59;98494.69;4476214;32;34259;-77
2023/10/22 04:14:45;;;;;;;6.22;2.92;;;;;;;18.07;85.27;98495.62;4476407;31;32916;-75
2023/10/22 04:17:14;;;;;;;4.70;2.17;;;;;;;18.10;84.60;98500.69;4480765;31;34797;-78
2023/10/22 04:19:46;;;;;;;5.68;2.37;;;;;;;18.09;84.34;98509.47;4475618;32;33656;-78
2023/10/22 04:22:16;;;;;;;5.10;2.70;;;;;;;18.02;85.23;98518.69;4465513;32;34150;-80
2023/10/22 04:24:54;;;;;;;5.15;2.08;;;;;;;18.23;83.75;98534.03;4474237;32;34123;-78
2023/10/22 04:27:23;;;;;;;3.30;1.40;;;;;;;18.27;83.70;98541.62;4464441;32;33464;-79
2023/10/22 04:29:53;;;;;;;7.05;1.33;;;;;;;17.93;83.61;98537.63;4477064;32;34440;-78
2023/10/22 04:32:22;;;;;;;3.45;0.80;;;;;;;17.66;82.48;98529.63;4470711;32;33698;-77
2023/10/22 04:34:54;;;;;;;2.95;0.90;;;;;;;17.38;82.75;98538.31;4472166;32;33056;-78
2023/10/22 04:37:23;;;;;;;5.97;0.90;;;;;;;17.20;83.87;98540.25;4463353;32;34636;-77
2023/10/22 04:39:57;;;;;;;0.65;0.57;;;;;;;17.27;83.14;98552.06;4473335;32;34550;-78
2023/10/22 04:42:28;;;;;;;1.10;0.80;;;;;;;17.05;85.27;98550.69;4479532;32;33563;-77
2023/10/22 04:45:04;;;;;;;1.62;0.88;;;;;;;16.99;84.57;98544.97;4466689;32;33720;-78
2023/10/22 04:47:40;;;;;;;1.10;0.75;;;;;;;17.16;84.03;98555.31;4472975;32;34724;-78
2023/10/22 04:50:10;;;;;;;1.35;1.25;;;;;;;16.98;84.69;98561.59;4439484;32;1000930;-80
2023/10/22 04:52:39;;;;;;;0.50;0.50;;;;;;;17.18;84.01;98557.81;4480902;32;34619;-79
2023/10/22 04:55:11;;;;;;;1.27;0.70;;;;;;;17.43;82.16;98559.87;4475121;32;34144;-79
2023/10/22 04:57:43;;;;;;;1.33;0.70;;;;;;;17.27;83.61;98567.78;4461067;32;33972;-79
2023/10/22 05:00:12;;;;;;;3.55;0.65;;;;;;;17.11;84.08;98570.47;4465220;32;36273;-77
2023/10/22 05:02:42;;;;;;;0.50;0.50;;;;;;;17.29;82.90;98573.78;4462073;32;35239;-78
2023/10/22 05:05:11;;;;;;;5.35;0.70;;;;;;;17.34;82.91;98576.97;4471207;32;33980;-81
2023/10/22 05:07:44;;;;;;;0.95;0.77;;;;;;;17.44;82.28;98580.72;4468617;32;34369;-78
2023/10/22 05:10:14;;;;;;;0.77;0.65;;;;;;;17.43;82.16;98581.69;4470838;32;33563;-78
2023/10/22 05:12:46;;;;;;;1.35;1.08;;;;;;;17.38;83.19;98588.12;4468638;32;33026;-79
2023/10/22 05:15:16;;;;;;;1.08;0.60;;;;;;;17.40;82.95;98594.97;4470619;32;33379;-79
2023/10/22 05:17:49;;;;;;;1.73;0.85;;;;;;;17.40;82.93;98596.75;4470018;32;33253;-79
2023/10/22 05:20:19;;;;;;;3.65;1.30;;;;;;;17.40;83.15;98605.47;4471651;32;33838;-79
2023/10/22 05:22:50;;;;;;;1.10;1.00;;;;;;;17.40;83.60;98604.63;4470709;32;33680;-78
2023/10/22 05:25:21;;;;;;;2.12;1.15;;;;;;;17.38;84.46;98612.56;4466438;32;33189;-81
2023/10/22 05:27:56;;;;;;;2.30;0.88;;;;;;;17.56;83.39;98613.25;4474116;32;34589;-80
2023/10/22 05:30:38;;;;;;;1.65;0.93;;;;;;;17.78;82.83;98627.72;4468978;32;33163;-80
2023/10/22 05:33:07;;;;;;;0.77;0.70;;;;;;;17.66;84.35;98626.66;4472705;31;33197;-79
2023/10/22 05:35:39;;;;;;;2.65;1.37;;;;;;;17.69;84.05;98631.75;4450967;31;33371;-78
2023/10/22 05:38:08;;;;;;;2.10;1.25;;;;;;;17.73;84.27;98635.88;4467358;32;33454;-78
2023/10/22 05:40:46;;;;;;;2.58;1.30;;;;;;;17.65;85.04;98643.34;4473959;32;34399;-79
2023/10/22 05:43:16;;;;;;;1.95;1.20;;;;;;;17.64;85.20;98637.28;4466419;32;32440;-79
2023/10/22 05:45:46;;;;;;;1.52;1.10;;;;;;;17.91;84.25;98663.66;4467944;32;33684;-81
2023/10/22 05:48:19;;;;;;;2.95;1.10;;;;;;;17.98;84.06;98652.81;4462690;31;32795;-79
2023/10/22 05:50:48;;;;;;;2.65;1.37;;;;;;;17.98;83.80;98671.19;4464802;32;34975;-79
2023/10/22 05:53:19;;;;;;;1.73;1.00;;;;;;;17.85;84.92;98674.50;4473468;32;34532;-79
2023/10/22 05:56:03;;;;;;;1.67;0.82;;;;;;;17.79;85.78;98687.97;4453869;32;32836;-79
2023/10/22 05:58:32;;;;;;;1.45;0.90;;;;;;;17.87;85.05;98684.94;4461051;32;33644;-78
2023/10/22 06:01:04;;;;;;;2.92;1.12;;;;;;;17.89;85.12;98711.94;4464615;32;33543;-79
2023/10/22 06:03:33;;;;;;;1.27;1.00;;;;;;;17.84;85.28;98709.56;4463377;32;33882;-79
2023/10/22 06:06:06;;;;;;;4.25;1.33;;;;;;;17.94;84.90;98709.88;4474408;31;34263;-81
2023/10/22 06:08:35;;;;;;;1.10;0.80;;;;;;;17.97;84.50;98722.81;4473882;31;33849;-80
2023/10/22 06:11:13;;;;;;;0.88;0.70;;;;;;;17.86;85.41;98720.00;4468994;32;33299;-79
2023/10/22 06:13:42;;;;;;;2.15;0.90;;;;;;;17.77;86.49;98726.56;4462994;32;34020;-79
2023/10/22 06:16:14;;;;;;;4.05;1.20;;;;;;;17.97;84.66;98735.09;4466105;32;33584;-78
2023/10/22 06:18:44;;;;;;;1.27;0.85;;;;;;;17.80;86.04;98731.66;4467610;32;33547;-81
2023/10/22 06:21:16;;;;;;;1.83;0.85;;;;;;;17.87;85.98;98727.75;4464678;32;34324;-79
2023/10/22 06:23:46;;;;;;;4.40;1.70;;;;;;;17.87;85.51;98724.28;4463712;32;33383;-80
2023/10/22 06:26:19;;;;;;;4.18;1.00;;;;;;;17.86;86.12;98731.31;4469212;32;33501;-81
2023/10/22 06:28:54;;;;;;;1.27;0.73;;;;;;;17.92;85.42;98740.59;4467429;32;32639;-81
2023/10/22 06:31:24;;;;;;;1.33;0.90;;;;;;;17.98;85.46;98740.25;4465621;32;34925;-79
2023/10/22 06:33:55;;;;;;;2.90;2.05;;;;;;;17.87;86.08;98750.53;4459881;32;34061;-81
2023/10/22 06:36:24;;;;;;;1.30;0.70;;;;;;;17.80;86.91;98755.28;4459851;32;33558;-79
2023/10/22 06:38:53;;;;;;;2.10;1.00;;;;;;;18.03;84.97;98763.63;4463629;32;33778;-80
2023/10/22 06:41:25;;;;;;;7.12;1.05;;;;;;;17.98;85.45;98765.66;4467633;32;34596;-79
2023/10/22 06:43:57;;;;;;;2.30;1.23;;;;;;;17.91;86.47;98770.41;4462006;32;33524;-79
2023/10/22 06:46:27;;;;;;;1.42;1.20;;;;;;;17.82;86.91;98768.31;4462792;32;33366;-78
2023/10/22 06:48:56;;;;;;;3.70;1.55;;;;;;;18.08;85.20;98766.81;4475467;32;33577;-80
2023/10/22 06:51:25;;;;;;;3.00;1.08;;;;;;;17.90;86.27;98782.69;4484128;32;33709;-79
2023/10/22 06:53:55;;;;;;;2.00;1.10;;;;;;;18.02;84.55;98788.97;4478536;32;33227;-79
2023/10/22 06:56:29;;;;;;;2.78;1.08;;;;;;;18.03;84.48;98790.69;4478292;32;33181;-79
2023/10/22 06:59:03;;;;;;;2.45;1.17;;;;;;;17.76;85.65;98790.47;4478250;32;36174;-79
2023/10/22 07:01:32;;;;;;;2.50;1.17;;;;;;;17.76;86.49;98797.47;4474193;32;34809;-79
2023/10/22 07:04:04;;;;;;;4.35;1.60;;;;;;;17.67;86.96;98791.84;4478220;32;33694;-78
2023/10/22 07:06:34;;;;;;;3.53;1.30;;;;;;;17.72;88.09;98807.31;4464063;32;33973;-78
2023/10/22 07:09:04;;;;;;;2.50;1.50;;;;;;;17.94;85.26;98806.97;4479431;32;34192;-79
2023/10/22 07:11:35;;;;;;;2.67;1.77;;;;;;;17.81;85.57;98817.31;4468466;32;34486;-78
2023/10/22 07:14:05;;;;;;;2.83;1.50;;;;;;;17.81;84.04;98817.31;4470704;32;33366;-78
2023/10/22 07:16:34;;;;;;;1.65;1.17;;;;;;;17.68;84.00;98830.22;4465910;32;34097;-80
2023/10/22 07:19:04;;;;;;;3.15;1.48;;;;;;;17.51;84.93;98829.50;4467377;32;33645;-79
2023/10/22 07:21:35;;;;;;;2.00;1.40;;;;;;;17.66;80.89;98832.12;4477456;32;33630;-81
2023/10/22 07:24:10;;;;;;;2.15;1.20;;;;;;;17.46;81.55;98833.22;4478373;32;34103;-78
2023/10/22 07:26:40;;;;;;;3.80;1.50;;;;;;;17.55;80.12;98837.13;4484097;32;34509;-78
2023/10/22 07:29:09;;;;;;;2.53;1.45;;;;;;;17.38;78.19;98847.69;4479205;32;33465;-79
2023/10/22 07:31:38;;;;;;;2.15;1.02;;;;;;;17.30;79.34;98853.34;4469685;32;33626;-80
2023/10/22 07:34:12;;;;;;;2.87;1.00;;;;;;;17.22;77.47;98855.53;4462164;32;33492;-77
2023/10/22 07:36:41;;;;;;;3.15;1.58;;;;;;;17.06;78.28;98856.34;4466672;32;32850;-78
2023/10/22 07:39:12;;;;;;;1.27;1.10;;;;;;;17.13;77.30;98863.88;4472400;32;33592;-78
2023/10/22 07:41:42;;;;;;;2.28;1.20;;;;;;;17.10;77.00;98857.03;4468592;32;33165;-78
2023/10/22 07:44:14;;;;;;;2.78;1.35;;;;;;;16.84;77.02;98867.13;4477989;32;33013;-78
2023/10/22 07:46:43;;;;;;;2.53;1.30;;;;;;;16.93;76.96;98881.50;4477868;32;33083;-77
2023/10/22 07:49:13;;;;;;;2.70;1.10;;;;;;;17.12;75.92;98885.78;4480440;32;33814;-79
2023/10/22 07:51:43;;;;;;;2.60;1.37;;;;;;;17.05;76.14;98893.09;4471511;32;34499;-78
2023/10/22 07:54:13;;;;;;;1.50;1.10;;;;;;;17.23;76.11;98900.00;4473625;31;34144;-80
2023/10/22 07:56:45;;;;;;;3.42;1.23;;;;;;;17.03;75.69;98898.44;4478050;32;33797;-78
2023/10/22 07:59:18;;;;;;;2.15;1.15;;;;;;;17.00;73.98;98902.97;4481979;32;34269;-77
2023/10/22 08:01:47;;;;;;;2.45;1.05;;;;;;;17.05;74.31;98901.81;4483336;32;34853;-79
2023/10/22 08:04:20;;;;;;;5.35;3.37;;;;;;;16.92;76.31;98913.88;4477836;32;34427;-79
2023/10/22 08:06:48;;;;;;;0.62;0.62;;;;;;;17.00;74.83;98914.31;4478214;32;33224;-79
2023/10/22 08:09:23;;;;;;;2.12;1.42;;;;;;;17.05;75.03;98921.94;4481294;32;33451;-81
2023/10/22 08:11:54;;;;;;;1.48;1.17;;;;;;;17.17;74.54;98926.53;4483759;32;34472;-82
2023/10/22 08:14:31;;;;;;;1.65;1.05;;;;;;;17.35;73.50;98921.25;4481654;32;33754;-80
2023/10/22 08:17:03;;;;;;;1.23;0.93;;;;;;;17.09;74.98;98927.88;4477498;32;33903;-79
2023/10/22 08:19:32;;;;;;;2.08;1.30;;;;;;;17.02;74.37;98925.56;4478039;32;33827;-80
2023/10/22 08:22:05;;;;;;;4.45;1.23;;;;;;;17.10;74.05;98929.56;4478631;32;33620;-80
2023/10/22 08:24:35;;;;;;;2.58;1.27;;;;;;;16.95;75.18;98937.28;4483490;32;33687;-79
2023/10/22 08:27:11;;;;;;;1.48;0.82;;;;;;;17.12;74.63;98930.34;4477517;32;33576;-82
2023/10/22 08:29:40;;;;;;;2.92;1.10;;;;;;;17.17;75.37;98934.41;4477953;32;34410;-79
2023/10/22 08:32:09;;;;;;;1.90;1.08;;;;;;;17.33;74.93;98942.31;4477566;31;34384;-81
2023/10/22 08:34:38;;;;;;;4.18;1.27;;;;;;;17.56;73.94;98953.34;4464019;32;33711;-81
2023/10/22 08:37:11;;;;;;;2.25;1.17;;;;;;;17.44;75.00;98949.59;4467308;32;33819;-79
2023/10/22 08:39:39;;;;;;;1.67;1.20;;;;;;;17.56;74.27;98946.31;4460668;32;34392;-79
2023/10/22 08:42:19;;;;;;;3.05;1.05;;;;;;;17.68;73.41;98953.53;4463546;32;34934;-79
2023/10/22 08:44:54;;;;;;;2.55;1.20;;;;;;;17.69;74.17;98954.38;4470009;32;33877;-78
2023/10/22 08:47:23;;;;;;;3.80;1.20;;;;;;;17.73;73.72;98966.38;4467562;32;33652;-81
2023/10/22 08:49:56;;;;;;;3.25;1.08;;;;;;;17.63;74.33;98970.44;4462862;32;34290;-79
2023/10/22 08:52:25;;;;;;;0.60;0.60;;;;;;;17.70;74.75;98974.44;4465873;32;34717;-80
2023/10/22 08:54:59;;;;;;;2.58;1.55;;;;;;;17.75;75.64;98980.28;4461863;32;33952;-79
2023/10/22 08:57:29;;;;;;;2.28;1.12;;;;;;;17.98;75.15;98992.19;4463080;32;33013;-79
2023/10/22 08:59:58;;;;;;;2.10;1.17;;;;;;;18.03;74.87;98990.16;4467431;32;32895;-80
2023/10/22 09:02:28;;;;;;;2.28;1.08;;;;;;;18.14;74.68;98997.44;4471559;32;34305;-80
2023/10/22 09:05:04;;;;;;;2.17;1.05;;;;;;;18.34;72.94;98989.31;4477232;32;35556;-79
2023/10/22 09:07:55;;;;;;;2.17;0.90;;;;;;;18.28;73.30;98994.87;4469457;32;33463;-79
2023/10/22 09:10:24;;;;;;;;;;;;;;;18.34;72.59;98998.97;4463752;32;33834;-78
2023/10/22 09:13:11;;;;;;;0.80;0.57;;;;;;;17.72;71.58;99000.59;4469725;32;34219;-81
2023/10/22 09:15:44;;;;;;;0.80;0.70;;;;;;;17.43;71.34;99001.19;4467868;32;34415;-79
2023/10/22 09:18:17;;;;;;;1.15;0.80;;;;;;;17.49;70.84;99000.00;4461544;32;32781;-78
2023/10/22 09:20:49;;;;;;;1.30;0.90;;;;;;;17.38;70.42;99012.88;4461518;32;33186;-79
2023/10/22 09:23:19;;;;;;;1.37;0.70;;;;;;;17.31;70.47;99028.06;4463844;32;34021;-81
2023/10/22 09:25:54;;;;;;;0.88;0.60;;;;;;;17.24;71.21;99029.28;4469318;32;33464;-78
2023/10/22 09:28:25;;;;;;;0.80;0.60;;;;;;;17.36;71.23;99033.06;4480247;31;33138;-81
2023/10/22 09:31:03;;;;;;;0.47;0.47;;;;;;;17.55;69.86;99028.56;4480195;31;34869;-81
2023/10/22 09:33:33;;;;;;;0.95;0.62;;;;;;;17.55;68.07;99030.34;4483540;31;34210;-79
2023/10/22 09:36:05;;;;;;;0.57;0.57;;;;;;;17.07;68.92;99019.66;4489056;31;33628;-81
2023/10/22 09:38:44;;;;;;;0.60;0.60;;;;;;;17.47;67.68;99039.44;4477977;32;32783;-80
2023/10/22 09:41:25;;;;;;;0.95;0.70;;;;;;;17.57;67.70;99054.72;4468359;32;34474;-79
2023/10/22 09:44:00;;;;;;;0.65;0.60;;;;;;;17.50;68.51;99064.66;4461229;32;33745;-79
2023/10/22 09:46:30;;;;;;;0.43;0.43;;;;;;;17.36;66.96;99061.91;4459960;32;33823;-78
2023/10/22 09:49:03;;;;;;;0.75;0.73;;;;;;;17.17;68.04;99064.59;4463230;32;32823;-79
2023/10/22 09:51:35;;;;;;;0.60;0.60;;;;;;;17.24;66.92;99056.34;4466764;32;32957;-78
2023/10/22 09:54:06;;;;;;;0.80;0.60;;;;;;;17.04;67.69;99067.84;4462224;32;33752;-79
2023/10/22 09:56:47;;;;;;;0.85;0.60;;;;;;;17.19;66.98;99066.22;4460521;32;33771;-79
2023/10/22 09:59:20;;;;;;;0.77;0.70;;;;;;;17.12;67.81;99071.84;4473756;32;33310;-79
2023/10/22 10:01:56;;;;;;;1.70;0.95;;;;;;;16.74;68.38;99071.91;4472029;32;34438;-77
2023/10/22 10:04:34;;;;;;;1.45;0.90;;;;;;;16.82;69.35;99077.69;4482199;32;33195;-80
2023/10/22 10:07:04;;;;;;;0.75;0.70;;;;;;;16.63;68.88;99083.78;4478564;32;34461;-78
2023/10/22 10:09:42;;;;;;;0.90;0.62;;;;;;;16.71;69.50;99074.69;4476145;32;33157;-76
2023/10/22 10:12:12;;;;;;;1.80;0.73;;;;;;;16.68;69.59;99080.94;4473652;32;33053;-77
2023/10/22 10:14:46;;;;;;;2.72;0.90;;;;;;;16.52;70.82;99080.81;4474248;32;33790;-76
2023/10/22 10:17:17;;;;;;;0.80;0.62;;;;;;;16.79;69.83;99086.53;4483972;32;33768;-79
2023/10/22 10:19:47;;;;;;;0.70;0.70;;;;;;;16.83;70.55;99089.84;4478784;32;32964;-77
2023/10/22 10:22:39;;;;;;;0.90;0.60;;;;;;;17.11;68.60;99091.97;4479942;32;33387;-77
2023/10/22 10:25:31;;;;;;;0.57;0.50;;;;;;;16.98;68.75;99088.25;4478101;32;33996;-76
2023/10/22 10:28:06;;;;;;;0.70;0.70;;;;;;;17.20;68.90;99102.00;4478698;32;34640;-76
2023/10/22 10:30:37;;;;;;;1.75;0.60;;;;;;;17.21;67.96;99100.22;4482445;32;33277;-77
2023/10/22 10:33:07;;;;;;;0.57;0.57;;;;;;;17.15;66.83;99106.59;4483562;32;32968;-77
2023/10/22 10:35:49;;;;;;;0.90;0.77;;;;;;;16.93;67.05;99103.34;4477109;32;33871;-78
2023/10/22 10:38:23;;;;;;;0.50;0.50;;;;;;;16.78;67.02;99112.78;4476965;32;33795;-78
2023/10/22 10:40:57;;;;;;;0.68;0.68;;;;;;;16.64;68.16;99116.87;4480557;32;33964;-77
2023/10/22 10:44:03;;;;;;;0.70;0.57;;;;;;;16.52;68.80;99112.22;4461988;32;33297;-79
2023/10/22 10:46:41;;;;;;;0.47;0.47;;;;;;;16.74;69.19;99109.44;4462339;32;33572;-78
2023/10/22 10:49:09;;;;;;;0.50;0.50;;;;;;;16.76;68.15;99118.06;4468058;32;34274;-77
2023/10/22 10:52:02;;;;;;;0.70;0.43;;;;;;;16.55;68.02;99119.97;4463915;32;33268;-77
2023/10/22 10:54:31;;;;;;;0.50;0.50;;;;;;;16.32;69.54;99113.16;4462641;32;34367;-78
2023/10/22 10:57:03;;;;;;;1.37;0.60;;;;;;;16.27;70.44;99111.69;4462075;32;34010;-76
2023/10/22 10:59:33;;;;;;;0.50;0.50;;;;;;;16.27;70.48;99103.81;4462939;32;34084;-77
2023/10/22 11:02:08;;;;;;;0.47;0.47;;;;;;;16.20;70.08;99111.94;4467997;32;33086;-76
2023/10/22 11:04:38;;;;;;;0.85;0.60;;;;;;;16.42;69.87;99122.28;4462282;32;33555;-76
2023/10/22 11:07:15;;;;;;;0.50;0.50;;;;;;;16.50;69.77;99126.31;4462366;32;34695;-78
2023/10/22 11:09:56;;;;;;;0.50;0.50;;;;;;;16.54;68.79;99133.09;4475090;32;33812;-76
2023/10/22 11:12:32;;;;;;;0.70;0.70;;;;;;;16.30;69.94;99132.47;4479064;32;33109;-77
2023/10/22 11:15:00;;;;;;;0.50;0.50;;;;;;;16.37;70.44;99136.50;4483616;32;33814;-78
2023/10/22 11:17:33;;;;;;;0.40;0.40;;;;;;;16.54;69.26;99136.56;4477910;32;33873;-75
2023/10/22 11:20:04;;;;;;;0.50;0.50;;;;;;;16.53;69.41;99134.88;4478563;32;34069;-78
2023/10/22 11:22:34;;;;;;;;;;;;;;;16.70;68.71;99131.47;4480335;32;32635;-78
2023/10/22 11:25:03;;;;;;;0.50;0.50;;;;;;;16.76;67.73;99125.94;4478815;32;33370;-77
2023/10/22 11:27:34;;;;;;;0.40;0.40;;;;;;;16.91;67.75;99120.91;4482722;32;33761;-76
2023/10/22 11:30:06;;;;;;;0.50;0.50;;;;;;;16.72;66.99;99120.91;4471906;32;34148;-76
2023/10/22 11:32:48;;;;;;;0.50;0.50;;;;;;;16.46;68.90;99120.38;4462831;31;33183;-76
2023/10/22 11:35:29;;;;;;;0.50;0.50;;;;;;;16.90;68.05;99114.00;4466988;31;33491;-77
2023/10/22 11:38:01;;;;;;;0.75;0.60;;;;;;;16.93;67.89;99124.31;4473090;31;35917;-77
2023/10/22 11:40:34;;;;;;;0.50;0.50;;;;;;;16.90;67.99;99122.69;4472946;31;33829;-79
2023/10/22 11:43:26;;;;;;;0.47;0.47;;;;;;;17.06;66.54;99131.50;4474272;31;33834;-78
2023/10/22 11:45:57;;;;;;;0.50;0.50;;;;;;;17.03;66.15;99129.06;4485057;31;33426;-78
2023/10/22 11:48:28;;;;;;;;;;;;;;;16.91;66.13;99134.00;4491332;31;34557;-77
2023/10/22 11:50:58;;;;;;;1.20;0.65;;;;;;;17.06;66.43;99136.75;4491133;31;34243;-77
2023/10/22 11:53:29;;;;;;;0.60;0.60;;;;;;;17.34;64.91;99137.16;4496296;31;33349;-77
2023/10/22 11:55:58;;;;;;;1.62;0.50;;;;;;;17.30;64.51;99140.84;4477258;31;34325;-77